sensor_id;sensor_type;location;lat;lon;timestamp;pressure;altitude;pressure_sealevel;temperature;humidity
43820;BME280;67762;52.476;6.046;2023-07-13T00:02:23;101237.69;;;15.95;78.77
43820;BME280;67762;52.476;6.046;2023-07-13T00:04:49;101246.59;;;15.96;78.63
43820;BME280;67762;52.476;6.046;2023-07-13T00:07:16;101253.63;;;15.97;79.01
43820;BME280;67762;52.476;6.046;2023-07-13T00:09:46;101256.50;;;15.95;79.48
43820;BME280;67762;52.476;6.046;2023-07-13T00:12:28;101244.75;;;15.96;79.53
43820;BME280;67762;52.476;6.046;2023-07-13T00:14:58;101243.06;;;15.95;79.33
43820;BME280;67762;52.476;6.046;2023-07-13T00:17:26;101238.06;;;15.92;79.35
43820;BME280;67762;52.476;6.046;2023-07-13T00:19:52;101245.28;;;15.92;79.78
43820;BME280;67762;52.476;6.046;2023-07-13T00:22:19;101243.63;;;15.91;80.39
43820;BME280;67762;52.476;6.046;2023-07-13T00:24:45;101240.47;;;15.87;80.97
43820;BME280;67762;52.476;6.046;2023-07-13T00:27:11;101241.69;;;15.85;80.89
43820;BME280;67762;52.476;6.046;2023-07-13T00:29:37;101251.16;;;15.80;80.66
43820;BME280;67762;52.476;6.046;2023-07-13T00:32:04;101257.09;;;15.76;80.68
43820;BME280;67762;52.476;6.046;2023-07-13T00:34:31;101247.72;;;15.72;81.12
43820;BME280;67762;52.476;6.046;2023-07-13T00:36:57;101249.50;;;15.65;81.53
43820;BME280;67762;52.476;6.046;2023-07-13T00:39:23;101247.81;;;15.64;82.10
43820;BME280;67762;52.476;6.046;2023-07-13T00:41:50;101244.50;;;15.62;82.49
43820;BME280;67762;52.476;6.046;2023-07-13T00:44:19;101251.94;;;15.60;81.65
43820;BME280;67762;52.476;6.046;2023-07-13T00:46:47;101248.88;;;15.63;82.67
43820;BME280;67762;52.476;6.046;2023-07-13T00:49:15;101241.81;;;15.62;82.10
43820;BME280;67762;52.476;6.046;2023-07-13T00:51:48;101254.63;;;15.60;82.25
43820;BME280;67762;52.476;6.046;2023-07-13T00:54:20;101245.50;;;15.61;82.19
43820;BME280;67762;52.476;6.046;2023-07-13T00:56:49;101252.78;;;15.60;82.78
43820;BME280;67762;52.476;6.046;2023-07-13T00:59:17;101246.34;;;15.61;82.51
43820;BME280;67762;52.476;6.046;2023-07-13T01:01:46;101251.72;;;15.61;83.19
43820;BME280;67762;52.476;6.046;2023-07-13T01:04:11;101251.47;;;15.56;83.21
43820;BME280;67762;52.476;6.046;2023-07-13T01:06:39;101257.41;;;15.52;83.86
43820;BME280;67762;52.476;6.046;2023-07-13T01:09:07;101258.78;;;15.48;84.11
43820;BME280;67762;52.476;6.046;2023-07-13T01:11:33;101260.63;;;15.47;83.95
43820;BME280;67762;52.476;6.046;2023-07-13T01:14:01;101263.50;;;15.46;84.61
43820;BME280;67762;52.476;6.046;2023-07-13T01:16:29;101261.81;;;15.45;84.71
43820;BME280;67762;52.476;6.046;2023-07-13T01:18:55;101262.00;;;15.43;84.28
43820;BME280;67762;52.476;6.046;2023-07-13T01:21:27;101263.84;;;15.43;84.61
43820;BME280;67762;52.476;6.046;2023-07-13T01:23:53;101262.00;;;15.43;84.77
43820;BME280;67762;52.476;6.046;2023-07-13T01:26:20;101264.69;;;15.43;85.73
43820;BME280;67762;52.476;6.046;2023-07-13T01:28:45;101270.44;;;15.40;85.53
43820;BME280;67762;52.476;6.046;2023-07-13T01:31:11;101267.91;;;15.39;84.98
43820;BME280;67762;52.476;6.046;2023-07-13T01:33:39;101260.06;;;15.37;85.80
43820;BME280;67762;52.476;6.046;2023-07-13T01:36:06;101257.72;;;15.34;85.67
43820;BME280;67762;52.476;6.046;2023-07-13T01:38:32;101260.41;;;15.34;85.79
43820;BME280;67762;52.476;6.046;2023-07-13T01:41:00;101265.53;;;15.29;85.92
43820;BME280;67762;52.476;6.046;2023-07-13T01:43:26;101267.94;;;15.24;86.37
43820;BME280;67762;52.476;6.046;2023-07-13T01:45:52;101263.56;;;15.23;86.50
43820;BME280;67762;52.476;6.046;2023-07-13T01:48:17;101260.88;;;15.23;87.18
43820;BME280;67762;52.476;6.046;2023-07-13T01:50:43;101258.34;;;15.21;87.22
43820;BME280;67762;52.476;6.046;2023-07-13T01:53:09;101263.09;;;15.19;87.46
43820;BME280;67762;52.476;6.046;2023-07-13T01:55:35;101259.91;;;15.16;87.21
43820;BME280;67762;52.476;6.046;2023-07-13T01:58:03;101268.00;;;15.16;87.05
43820;BME280;67762;52.476;6.046;2023-07-13T02:00:29;101266.81;;;15.18;87.19
43820;BME280;67762;52.476;6.046;2023-07-13T02:02:55;101272.47;;;15.23;87.13
43820;BME280;67762;52.476;6.046;2023-07-13T02:05:21;101271.25;;;15.26;87.26
43820;BME280;67762;52.476;6.046;2023-07-13T02:07:47;101275.44;;;15.29;87.40
43820;BME280;67762;52.476;6.046;2023-07-13T02:10:13;101275.81;;;15.26;86.56
43820;BME280;67762;52.476;6.046;2023-07-13T02:12:40;101264.56;;;15.22;87.02
43820;BME280;67762;52.476;6.046;2023-07-13T02:15:07;101273.00;;;15.19;86.77
43820;BME280;67762;52.476;6.046;2023-07-13T02:17:34;101269.50;;;15.18;86.65
43820;BME280;67762;52.476;6.046;2023-07-13T02:20:00;101274.56;;;15.13;87.09
43820;BME280;67762;52.476;6.046;2023-07-13T02:22:26;101264.66;;;15.14;86.40
43820;BME280;67762;52.476;6.046;2023-07-13T02:24:52;101271.88;;;15.13;86.97
43820;BME280;67762;52.476;6.046;2023-07-13T02:27:18;101271.44;;;15.10;87.01
43820;BME280;67762;52.476;6.046;2023-07-13T02:29:44;101269.94;;;15.07;86.77
43820;BME280;67762;52.476;6.046;2023-07-13T02:32:10;101274.66;;;15.05;86.87
43820;BME280;67762;52.476;6.046;2023-07-13T02:34:35;101271.13;;;15.05;86.94
43820;BME280;67762;52.476;6.046;2023-07-13T02:37:04;101270.84;;;15.00;86.99
43820;BME280;67762;52.476;6.046;2023-07-13T02:39:29;101257.13;;;14.95;87.21
43820;BME280;67762;52.476;6.046;2023-07-13T02:41:59;101268.06;;;14.93;87.58
43820;BME280;67762;52.476;6.046;2023-07-13T02:44:26;101274.81;;;14.89;87.70
43820;BME280;67762;52.476;6.046;2023-07-13T02:46:52;101267.47;;;14.83;87.60
43820;BME280;67762;52.476;6.046;2023-07-13T02:49:18;101266.31;;;14.78;87.70
43820;BME280;67762;52.476;6.046;2023-07-13T02:51:44;101271.41;;;14.73;88.17
43820;BME280;67762;52.476;6.046;2023-07-13T02:54:09;101265.41;;;14.71;88.55
43820;BME280;67762;52.476;6.046;2023-07-13T02:56:37;101274.28;;;14.71;88.76
43820;BME280;67762;52.476;6.046;2023-07-13T02:59:04;101277.50;;;14.67;88.85
43820;BME280;67762;52.476;6.046;2023-07-13T03:01:30;101285.56;;;14.67;88.85
43820;BME280;67762;52.476;6.046;2023-07-13T03:03:58;101282.22;;;14.64;89.09
43820;BME280;67762;52.476;6.046;2023-07-13T03:06:24;101281.38;;;14.64;88.95
43820;BME280;67762;52.476;6.046;2023-07-13T03:08:52;101282.41;;;14.63;89.66
43820;BME280;67762;52.476;6.046;2023-07-13T03:11:20;101283.22;;;14.63;89.72
43820;BME280;67762;52.476;6.046;2023-07-13T03:13:59;101279.06;;;14.61;89.53
43820;BME280;67762;52.476;6.046;2023-07-13T03:16:27;101286.28;;;14.60;89.41
43820;BME280;67762;52.476;6.046;2023-07-13T03:18:53;101289.34;;;14.57;89.94
43820;BME280;67762;52.476;6.046;2023-07-13T03:21:19;101285.81;;;14.57;90.13
43820;BME280;67762;52.476;6.046;2023-07-13T03:23:45;101294.03;;;14.55;90.56
43820;BME280;67762;52.476;6.046;2023-07-13T03:26:14;101293.19;;;14.55;90.24
43820;BME280;67762;52.476;6.046;2023-07-13T03:28:41;101294.22;;;14.54;90.77
43820;BME280;67762;52.476;6.046;2023-07-13T03:31:16;101298.94;;;14.52;90.91
43820;BME280;67762;52.476;6.046;2023-07-13T03:33:43;101298.75;;;14.53;91.31
43820;BME280;67762;52.476;6.046;2023-07-13T03:36:14;101301.44;;;14.53;90.97
43820;BME280;67762;52.476;6.046;2023-07-13T03:38:41;101313.88;;;14.54;91.02
43820;BME280;67762;52.476;6.046;2023-07-13T03:41:07;101303.13;;;14.54;91.26
43820;BME280;67762;52.476;6.046;2023-07-13T03:43:33;101303.59;;;14.58;91.19
43820;BME280;67762;52.476;6.046;2023-07-13T03:45:59;101307.09;;;14.58;91.08
43820;BME280;67762;52.476;6.046;2023-07-13T03:48:24;101316.66;;;14.61;90.95
43820;BME280;67762;52.476;6.046;2023-07-13T03:50:50;101313.13;;;14.60;91.42
43820;BME280;67762;52.476;6.046;2023-07-13T03:53:16;101316.66;;;14.61;91.42
43820;BME280;67762;52.476;6.046;2023-07-13T03:55:42;101327.25;;;14.62;91.11
43820;BME280;67762;52.476;6.046;2023-07-13T03:58:28;101318.34;;;14.62;91.40
43820;BME280;67762;52.476;6.046;2023-07-13T04:00:59;101322.31;;;14.66;91.48
43820;BME280;67762;52.476;6.046;2023-07-13T04:03:25;101318.28;;;14.70;91.59
43820;BME280;67762;52.476;6.046;2023-07-13T04:05:57;101317.28;;;14.71;91.53
43820;BME280;67762;52.476;6.046;2023-07-13T04:08:35;101320.97;;;14.70;91.42
43820;BME280;67762;52.476;6.046;2023-07-13T04:11:02;101319.59;;;14.74;91.81
43820;BME280;67762;52.476;6.046;2023-07-13T04:13:28;101323.78;;;14.77;91.37
43820;BME280;67762;52.476;6.046;2023-07-13T04:15:54;101329.81;;;14.79;91.78
43820;BME280;67762;52.476;6.046;2023-07-13T04:18:20;101335.47;;;14.84;92.02
43820;BME280;67762;52.476;6.046;2023-07-13T04:20:47;101339.63;;;14.86;92.10
43820;BME280;67762;52.476;6.046;2023-07-13T04:23:13;101341.63;;;14.92;91.57
43820;BME280;67762;52.476;6.046;2023-07-13T04:25:42;101339.88;;;14.99;91.89
43820;BME280;67762;52.476;6.046;2023-07-13T04:28:08;101341.19;;;15.03;91.70
43820;BME280;67762;52.476;6.046;2023-07-13T04:30:34;101338.78;;;15.08;91.10
43820;BME280;67762;52.476;6.046;2023-07-13T04:33:00;101348.47;;;15.17;91.31
43820;BME280;67762;52.476;6.046;2023-07-13T04:35:26;101348.59;;;15.24;91.38
43820;BME280;67762;52.476;6.046;2023-07-13T04:37:52;101341.66;;;15.30;90.34
43820;BME280;67762;52.476;6.046;2023-07-13T04:40:20;101348.97;;;15.36;90.59
43820;BME280;67762;52.476;6.046;2023-07-13T04:42:46;101340.38;;;15.40;90.71
43820;BME280;67762;52.476;6.046;2023-07-13T04:45:14;101351.22;;;15.47;89.79
43820;BME280;67762;52.476;6.046;2023-07-13T04:47:40;101343.28;;;15.53;89.41
43820;BME280;67762;52.476;6.046;2023-07-13T04:50:07;101348.56;;;15.61;89.40
43820;BME280;67762;52.476;6.046;2023-07-13T04:52:34;101349.53;;;15.68;88.50
43820;BME280;67762;52.476;6.046;2023-07-13T04:55:00;101353.13;;;15.75;88.93
43820;BME280;67762;52.476;6.046;2023-07-13T04:57:26;101349.69;;;15.82;87.87
43820;BME280;67762;52.476;6.046;2023-07-13T04:59:52;101352.50;;;15.88;88.36
43820;BME280;67762;52.476;6.046;2023-07-13T05:02:20;101356.09;;;15.95;88.22
43820;BME280;67762;52.476;6.046;2023-07-13T05:04:47;101355.16;;;16.03;86.94
43820;BME280;67762;52.476;6.046;2023-07-13T05:07:13;101365.03;;;16.10;87.62
43820;BME280;67762;52.476;6.046;2023-07-13T05:09:39;101362.38;;;16.17;86.28
43820;BME280;67762;52.476;6.046;2023-07-13T05:12:07;101369.72;;;16.23;86.36
43820;BME280;67762;52.476;6.046;2023-07-13T05:14:33;101374.00;;;16.32;86.64
43820;BME280;67762;52.476;6.046;2023-07-13T05:16:58;101371.19;;;16.40;86.66
43820;BME280;67762;52.476;6.046;2023-07-13T05:19:24;101364.84;;;16.48;86.38
43820;BME280;67762;52.476;6.046;2023-07-13T05:21:50;101370.16;;;16.56;85.01
43820;BME280;67762;52.476;6.046;2023-07-13T05:24:16;101378.50;;;16.61;85.31
43820;BME280;67762;52.476;6.046;2023-07-13T05:26:42;101380.06;;;16.70;85.33
43820;BME280;67762;52.476;6.046;2023-07-13T05:29:07;101378.47;;;16.75;84.91
43820;BME280;67762;52.476;6.046;2023-07-13T05:31:33;101377.50;;;16.83;84.05
43820;BME280;67762;52.476;6.046;2023-07-13T05:33:59;101380.25;;;16.89;83.91
43820;BME280;67762;52.476;6.046;2023-07-13T05:36:25;101379.13;;;16.99;84.43
43820;BME280;67762;52.476;6.046;2023-07-13T05:38:50;101373.78;;;17.05;83.42
43820;BME280;67762;52.476;6.046;2023-07-13T05:41:16;101384.44;;;17.13;83.76
43820;BME280;67762;52.476;6.046;2023-07-13T05:43:42;101380.56;;;17.22;83.83
43820;BME280;67762;52.476;6.046;2023-07-13T05:46:07;101385.81;;;17.30;83.43
43820;BME280;67762;52.476;6.046;2023-07-13T05:48:33;101390.06;;;17.39;82.95
43820;BME280;67762;52.476;6.046;2023-07-13T05:50:59;101389.91;;;17.47;82.36
43820;BME280;67762;52.476;6.046;2023-07-13T05:53:24;101397.06;;;17.55;82.09
43820;BME280;67762;52.476;6.046;2023-07-13T05:55:50;101393.41;;;17.63;81.69
43820;BME280;67762;52.476;6.046;2023-07-13T05:58:17;101401.59;;;17.76;82.03
43820;BME280;67762;52.476;6.046;2023-07-13T06:00:42;101392.31;;;17.85;81.36
43820;BME280;67762;52.476;6.046;2023-07-13T06:03:08;101404.88;;;17.99;81.31
43820;BME280;67762;52.476;6.046;2023-07-13T06:05:35;101405.38;;;18.16;81.03
43820;BME280;67762;52.476;6.046;2023-07-13T06:08:02;101402.91;;;18.21;80.26
43820;BME280;67762;52.476;6.046;2023-07-13T06:10:28;101406.69;;;18.26;79.91
43820;BME280;67762;52.476;6.046;2023-07-13T06:12:53;101412.25;;;18.25;79.44
43820;BME280;67762;52.476;6.046;2023-07-13T06:15:19;101412.72;;;18.28;79.28
43820;BME280;67762;52.476;6.046;2023-07-13T06:17:45;101421.03;;;18.33;79.62
43820;BME280;67762;52.476;6.046;2023-07-13T06:20:11;101404.91;;;18.46;79.44
43820;BME280;67762;52.476;6.046;2023-07-13T06:22:36;101418.69;;;18.51;79.04
43820;BME280;67762;52.476;6.046;2023-07-13T06:25:02;101421.63;;;18.63;79.09
43820;BME280;67762;52.476;6.046;2023-07-13T06:27:28;101423.34;;;18.84;78.97
43820;BME280;67762;52.476;6.046;2023-07-13T06:29:54;101426.50;;;18.94;77.86
43820;BME280;67762;52.476;6.046;2023-07-13T06:32:20;101425.28;;;18.96;77.53
43820;BME280;67762;52.476;6.046;2023-07-13T06:34:46;101422.13;;;18.86;77.21
43820;BME280;67762;52.476;6.046;2023-07-13T06:37:12;101426.28;;;18.89;77.85
43820;BME280;67762;52.476;6.046;2023-07-13T06:39:37;101420.47;;;18.92;78.12
43820;BME280;67762;52.476;6.046;2023-07-13T06:42:05;101425.28;;;18.96;77.73
43820;BME280;67762;52.476;6.046;2023-07-13T06:44:31;101417.81;;;19.11;77.37
43820;BME280;67762;52.476;6.046;2023-07-13T06:46:56;101434.47;;;19.21;76.63
43820;BME280;67762;52.476;6.046;2023-07-13T06:49:22;101430.09;;;19.34;76.05
43820;BME280;67762;52.476;6.046;2023-07-13T06:51:48;101432.66;;;19.48;76.01
43820;BME280;67762;52.476;6.046;2023-07-13T06:54:14;101416.19;;;19.50;75.19
43820;BME280;67762;52.476;6.046;2023-07-13T06:56:40;101429.94;;;19.48;74.72
43820;BME280;67762;52.476;6.046;2023-07-13T06:59:05;101432.44;;;19.50;74.17
43820;BME280;67762;52.476;6.046;2023-07-13T07:01:31;101435.56;;;19.73;74.69
43820;BME280;67762;52.476;6.046;2023-07-13T07:03:57;101432.00;;;19.99;74.16
43820;BME280;67762;52.476;6.046;2023-07-13T07:06:23;101438.44;;;19.91;73.81
43820;BME280;67762;52.476;6.046;2023-07-13T07:08:50;101433.69;;;19.73;73.78
43820;BME280;67762;52.476;6.046;2023-07-13T07:11:22;101434.72;;;19.53;73.64
43820;BME280;67762;52.476;6.046;2023-07-13T07:13:49;101437.03;;;19.75;74.17
43820;BME280;67762;52.476;6.046;2023-07-13T07:16:15;101444.47;;;20.00;73.56
43820;BME280;67762;52.476;6.046;2023-07-13T07:18:41;101453.03;;;19.97;72.70
43820;BME280;67762;52.476;6.046;2023-07-13T07:21:07;101449.28;;;20.04;72.36
43820;BME280;67762;52.476;6.046;2023-07-13T07:23:33;101436.13;;;20.27;71.63
43820;BME280;67762;52.476;6.046;2023-07-13T07:25:59;101441.13;;;20.24;71.88
43820;BME280;67762;52.476;6.046;2023-07-13T07:28:24;101454.47;;;20.12;71.38
43820;BME280;67762;52.476;6.046;2023-07-13T07:30:53;101446.56;;;20.11;71.47
43820;BME280;67762;52.476;6.046;2023-07-13T07:33:19;101448.63;;;20.35;71.15
43820;BME280;67762;52.476;6.046;2023-07-13T07:35:45;101440.03;;;20.38;69.51
43820;BME280;67762;52.476;6.046;2023-07-13T07:38:10;101440.03;;;20.45;69.72
43820;BME280;67762;52.476;6.046;2023-07-13T07:40:38;101433.19;;;20.22;69.13
43820;BME280;67762;52.476;6.046;2023-07-13T07:43:04;101435.75;;;19.98;69.72
43820;BME280;67762;52.476;6.046;2023-07-13T07:45:30;101443.69;;;19.93;69.95
43820;BME280;67762;52.476;6.046;2023-07-13T07:47:56;101442.84;;;19.85;70.17
43820;BME280;67762;52.476;6.046;2023-07-13T07:50:25;101443.25;;;19.96;70.29
43820;BME280;67762;52.476;6.046;2023-07-13T07:52:51;101434.25;;;20.15;69.55
43820;BME280;67762;52.476;6.046;2023-07-13T07:55:17;101441.31;;;20.22;67.96
43820;BME280;67762;52.476;6.046;2023-07-13T07:57:43;101430.03;;;20.45;67.94
43820;BME280;67762;52.476;6.046;2023-07-13T08:00:09;101432.84;;;20.70;67.75
43820;BME280;67762;52.476;6.046;2023-07-13T08:02:40;101439.78;;;20.97;66.57
43820;BME280;67762;52.476;6.046;2023-07-13T08:05:08;101439.00;;;21.28;66.22
43820;BME280;67762;52.476;6.046;2023-07-13T08:07:34;101439.00;;;21.28;64.68
43820;BME280;67762;52.476;6.046;2023-07-13T08:09:59;101437.97;;;21.53;64.08
43820;BME280;67762;52.476;6.046;2023-07-13T08:12:26;101438.09;;;21.65;62.42
43820;BME280;67762;52.476;6.046;2023-07-13T08:14:52;101443.13;;;21.62;62.67
43820;BME280;67762;52.476;6.046;2023-07-13T08:17:24;101440.09;;;21.20;63.70
43820;BME280;67762;52.476;6.046;2023-07-13T08:19:50;101439.25;;;20.82;63.90
43820;BME280;67762;52.476;6.046;2023-07-13T08:22:16;101435.47;;;20.38;64.42
43820;BME280;67762;52.476;6.046;2023-07-13T08:24:42;101435.34;;;19.88;67.51
43820;BME280;67762;52.476;6.046;2023-07-13T08:27:09;101460.09;;;18.65;74.08
43820;BME280;67762;52.476;6.046;2023-07-13T08:29:37;101465.47;;;17.69;79.02
43820;BME280;67762;52.476;6.046;2023-07-13T08:32:05;101446.84;;;17.10;81.96
43820;BME280;67762;52.476;6.046;2023-07-13T08:34:31;101475.00;;;16.86;85.96
43820;BME280;67762;52.476;6.046;2023-07-13T08:36:57;101464.91;;;16.74;87.40
43820;BME280;67762;52.476;6.046;2023-07-13T08:39:22;101470.66;;;16.71;89.61
43820;BME280;67762;52.476;6.046;2023-07-13T08:41:54;101451.53;;;16.66;91.88
43820;BME280;67762;52.476;6.046;2023-07-13T08:44:37;101441.41;;;16.68;94.16
43820;BME280;67762;52.476;6.046;2023-07-13T08:47:06;101459.88;;;16.71;95.30
43820;BME280;67762;52.476;6.046;2023-07-13T08:49:34;101461.38;;;16.59;94.80
43820;BME280;67762;52.476;6.046;2023-07-13T08:52:24;101458.56;;;16.67;95.58
43820;BME280;67762;52.476;6.046;2023-07-13T08:54:55;101453.13;;;17.17;96.84
43820;BME280;67762;52.476;6.046;2023-07-13T08:57:27;101450.50;;;17.66;97.59
43820;BME280;67762;52.476;6.046;2023-07-13T08:59:55;101474.16;;;18.13;96.95
43820;BME280;67762;52.476;6.046;2023-07-13T09:02:49;101479.97;;;18.17;94.24
43820;BME280;67762;52.476;6.046;2023-07-13T09:05:28;101477.06;;;18.18;91.37
43820;BME280;67762;52.476;6.046;2023-07-13T09:11:27;101477.97;;;18.59;87.26
43820;BME280;67762;52.476;6.046;2023-07-13T09:15:59;101503.34;;;19.12;84.89
43820;BME280;67762;52.476;6.046;2023-07-13T09:18:35;101490.03;;;19.17;83.13
43820;BME280;67762;52.476;6.046;2023-07-13T09:21:12;101497.16;;;19.32;82.06
43820;BME280;67762;52.476;6.046;2023-07-13T09:23:38;101498.25;;;19.50;81.78
43820;BME280;67762;52.476;6.046;2023-07-13T09:26:12;101495.53;;;19.50;80.29
43820;BME280;67762;52.476;6.046;2023-07-13T09:28:41;101492.41;;;19.47;79.00
43820;BME280;67762;52.476;6.046;2023-07-13T09:31:14;101491.19;;;19.75;79.17
43820;BME280;67762;52.476;6.046;2023-07-13T09:33:41;101503.88;;;20.34;77.56
43820;BME280;67762;52.476;6.046;2023-07-13T09:36:31;101494.66;;;21.12;75.74
43820;BME280;67762;52.476;6.046;2023-07-13T09:42:14;101487.31;;;20.68;73.89
43820;BME280;67762;52.476;6.046;2023-07-13T09:47:18;101479.28;;;20.09;74.02
43820;BME280;67762;52.476;6.046;2023-07-13T09:49:44;101484.09;;;20.07;74.47
43820;BME280;67762;52.476;6.046;2023-07-13T09:52:13;101491.75;;;20.43;73.13
43820;BME280;67762;52.476;6.046;2023-07-13T09:54:44;101490.28;;;20.47;71.67
43820;BME280;67762;52.476;6.046;2023-07-13T09:57:23;101488.88;;;20.25;72.81
43820;BME280;67762;52.476;6.046;2023-07-13T09:59:51;101498.22;;;20.16;73.01
43820;BME280;67762;52.476;6.046;2023-07-13T10:05:06;101548.25;;;18.32;79.86
43820;BME280;67762;52.476;6.046;2023-07-13T10:07:38;101557.00;;;17.28;85.96
43820;BME280;67762;52.476;6.046;2023-07-13T10:10:14;101560.03;;;16.89;89.60
43820;BME280;67762;52.476;6.046;2023-07-13T10:12:40;101562.94;;;16.73;92.42
43820;BME280;67762;52.476;6.046;2023-07-13T10:15:18;101552.63;;;16.62;92.22
43820;BME280;67762;52.476;6.046;2023-07-13T10:17:45;101541.28;;;16.66;91.86
43820;BME280;67762;52.476;6.046;2023-07-13T10:20:12;101542.00;;;16.75;92.03
43820;BME280;67762;52.476;6.046;2023-07-13T10:22:51;101552.41;;;16.78;91.49
43820;BME280;67762;52.476;6.046;2023-07-13T10:25:21;101560.25;;;16.73;92.37
43820;BME280;67762;52.476;6.046;2023-07-13T10:27:51;101558.22;;;16.60;93.47
43820;BME280;67762;52.476;6.046;2023-07-13T10:30:25;101568.03;;;16.53;94.24
43820;BME280;67762;52.476;6.046;2023-07-13T10:32:54;101573.00;;;16.42;94.88
43820;BME280;67762;52.476;6.046;2023-07-13T10:35:21;101567.97;;;16.24;95.82
43820;BME280;67762;52.476;6.046;2023-07-13T10:43:35;101571.25;;;16.49;97.96
43820;BME280;67762;52.476;6.046;2023-07-13T10:46:06;101580.22;;;16.64;98.28
43820;BME280;67762;52.476;6.046;2023-07-13T10:48:35;101570.09;;;16.66;98.32
43820;BME280;67762;52.476;6.046;2023-07-13T10:51:04;101576.78;;;16.70;99.09
43820;BME280;67762;52.476;6.046;2023-07-13T10:53:34;101569.91;;;16.67;100.00
43820;BME280;67762;52.476;6.046;2023-07-13T10:56:01;101568.41;;;16.65;100.00
43820;BME280;67762;52.476;6.046;2023-07-13T10:58:42;101554.84;;;16.73;100.00
43820;BME280;67762;52.476;6.046;2023-07-13T11:01:16;101564.38;;;17.55;100.00
43820;BME280;67762;52.476;6.046;2023-07-13T11:18:45;101581.97;;;16.05;100.00
43820;BME280;67762;52.476;6.046;2023-07-13T11:21:15;101572.06;;;15.97;100.00
43820;BME280;67762;52.476;6.046;2023-07-13T11:23:43;101571.72;;;16.00;100.00
43820;BME280;67762;52.476;6.046;2023-07-13T11:29:31;101578.88;;;16.08;100.00
43820;BME280;67762;52.476;6.046;2023-07-13T11:32:01;101576.88;;;16.10;100.00
43820;BME280;67762;52.476;6.046;2023-07-13T11:34:30;101576.78;;;16.18;100.00
43820;BME280;67762;52.476;6.046;2023-07-13T11:36:59;101576.81;;;16.32;100.00
43820;BME280;67762;52.476;6.046;2023-07-13T11:39:34;101572.91;;;16.50;100.00
43820;BME280;67762;52.476;6.046;2023-07-13T11:42:03;101573.44;;;16.68;100.00
43820;BME280;67762;52.476;6.046;2023-07-13T11:44:34;101583.75;;;16.93;100.00
43820;BME280;67762;52.476;6.046;2023-07-13T11:47:09;101582.69;;;17.09;100.00
43820;BME280;67762;52.476;6.046;2023-07-13T11:49:42;101575.47;;;17.45;100.00
43820;BME280;67762;52.476;6.046;2023-07-13T11:52:15;101572.66;;;17.75;100.00
43820;BME280;67762;52.476;6.046;2023-07-13T11:54:48;101573.25;;;17.91;100.00
43820;BME280;67762;52.476;6.046;2023-07-13T11:57:26;101570.16;;;17.94;100.00
43820;BME280;67762;52.476;6.046;2023-07-13T11:59:55;101567.72;;;18.27;100.00
43820;BME280;67762;52.476;6.046;2023-07-13T12:02:35;101566.63;;;19.18;100.00
43820;BME280;67762;52.476;6.046;2023-07-13T12:05:04;101566.59;;;19.78;100.00
43820;BME280;67762;52.476;6.046;2023-07-13T12:07:32;101570.97;;;20.19;98.11
43820;BME280;67762;52.476;6.046;2023-07-13T12:10:25;101572.44;;;20.41;94.21
43820;BME280;67762;52.476;6.046;2023-07-13T12:13:00;101569.94;;;20.13;94.05
43820;BME280;67762;52.476;6.046;2023-07-13T12:15:35;101571.19;;;20.57;93.64
43820;BME280;67762;52.476;6.046;2023-07-13T12:18:02;101575.97;;;20.68;92.23
43820;BME280;67762;52.476;6.046;2023-07-13T12:20:35;101584.41;;;21.04;91.70
43820;BME280;67762;52.476;6.046;2023-07-13T12:23:05;101581.69;;;21.17;90.41
43820;BME280;67762;52.476;6.046;2023-07-13T12:25:31;101579.72;;;21.31;88.68
43820;BME280;67762;52.476;6.046;2023-07-13T12:27:57;101585.41;;;21.61;86.97
43820;BME280;67762;52.476;6.046;2023-07-13T12:30:31;101580.53;;;22.07;84.21
43820;BME280;67762;52.476;6.046;2023-07-13T12:33:01;101573.66;;;22.04;80.26
43820;BME280;67762;52.476;6.046;2023-07-13T12:35:29;101584.16;;;22.19;78.98
43820;BME280;67762;52.476;6.046;2023-07-13T12:38:01;101582.75;;;22.59;78.16
43820;BME280;67762;52.476;6.046;2023-07-13T12:40:32;101578.34;;;23.01;75.36
43820;BME280;67762;52.476;6.046;2023-07-13T12:42:59;101578.78;;;23.16;74.23
43820;BME280;67762;52.476;6.046;2023-07-13T12:45:27;101565.63;;;22.77;68.64
43820;BME280;67762;52.476;6.046;2023-07-13T12:48:12;101578.28;;;21.97;69.83
43820;BME280;67762;52.476;6.046;2023-07-13T12:50:42;101577.47;;;22.22;71.72
43820;BME280;67762;52.476;6.046;2023-07-13T12:53:23;101576.69;;;22.82;68.14
43820;BME280;67762;52.476;6.046;2023-07-13T12:55:53;101563.56;;;23.27;64.66
43820;BME280;67762;52.476;6.046;2023-07-13T12:58:31;101583.28;;;23.59;65.28
43820;BME280;67762;52.476;6.046;2023-07-13T13:01:01;101583.03;;;24.02;63.69
43820;BME280;67762;52.476;6.046;2023-07-13T13:05:58;101586.88;;;24.47;61.18
43820;BME280;67762;52.476;6.046;2023-07-13T13:08:25;101593.38;;;24.11;60.71
43820;BME280;67762;52.476;6.046;2023-07-13T13:10:51;101588.38;;;24.08;58.17
43820;BME280;67762;52.476;6.046;2023-07-13T13:13:17;101580.38;;;24.48;58.95
43820;BME280;67762;52.476;6.046;2023-07-13T13:15:42;101593.78;;;24.84;57.30
43820;BME280;67762;52.476;6.046;2023-07-13T13:18:15;101597.94;;;24.98;59.18
43820;BME280;67762;52.476;6.046;2023-07-13T13:20:41;101590.94;;;25.31;57.73
43820;BME280;67762;52.476;6.046;2023-07-13T13:23:15;101588.06;;;24.97;55.22
43820;BME280;67762;52.476;6.046;2023-07-13T13:25:50;101595.31;;;24.80;52.44
43820;BME280;67762;52.476;6.046;2023-07-13T13:28:20;101597.78;;;24.93;54.69
43820;BME280;67762;52.476;6.046;2023-07-13T13:30:50;101596.22;;;25.21;52.93
43820;BME280;67762;52.476;6.046;2023-07-13T13:33:19;101602.97;;;25.18;52.98
43820;BME280;67762;52.476;6.046;2023-07-13T13:35:45;101590.41;;;25.06;53.07
43820;BME280;67762;52.476;6.046;2023-07-13T13:38:12;101607.06;;;25.04;52.29